LFLP 181530Z AUTO 32006KT 9999 FEW043 BKN150 23/14 Q1012 TEMPO 2000 TSRA SCT015 BKN030CB

ElémentsDécodage
LFLP Station météo située sur l'aérodrome de ANNECY Meythet
181530Z émis le 18 du mois à 15h30 UTC
AUTO Bulletin édité par un automate
32006KT vent du 320°, 06 noeuds
9999 visibilité horizontale supérieure à 10 Km
FEW043 nuages rares (1/8 à 2/8) à 4300 pieds
BKN150 nuages morcelés (5/8 à 7/8) à 15000 pieds
23/14 température 23°C, point de rosée 14°C
 soit une humidité relative de 57%
Q1012 la pression au niveau de la mer (QNH) est de 1012 hPa
TEMPO fluctuation temporaire prévue
2000 visibilité horizontale de 2000 mètres
TSRA pluie d'orage
SCT015 nuages épars (3/8 à 4/8) à 1500 pieds
BKN030CB nuages morcelés (5/8 à 7/8) à 3000 pieds
 présence de cumulonimbus